sensor_id;sensor_type;location;lat;lon;timestamp;temperature;humidity
7562;DHT22;3822;48.784;9.174;2023-03-26T00:01:42;11.30;88.40
7562;DHT22;3822;48.784;9.174;2023-03-26T00:04:14;11.30;88.50
7562;DHT22;3822;48.784;9.174;2023-03-26T00:06:44;11.20;88.80
7562;DHT22;3822;48.784;9.174;2023-03-26T00:09:14;11.20;88.80
7562;DHT22;3822;48.784;9.174;2023-03-26T00:11:41;11.20;88.80
7562;DHT22;3822;48.784;9.174;2023-03-26T00:14:19;11.20;88.90
7562;DHT22;3822;48.784;9.174;2023-03-26T00:16:49;11.20;88.80
7562;DHT22;3822;48.784;9.174;2023-03-26T00:19:15;11.20;88.80
7562;DHT22;3822;48.784;9.174;2023-03-26T00:21:42;11.10;89.00
7562;DHT22;3822;48.784;9.174;2023-03-26T00:24:09;11.10;89.10
7562;DHT22;3822;48.784;9.174;2023-03-26T00:26:42;11.00;89.10
7562;DHT22;3822;48.784;9.174;2023-03-26T00:29:09;11.00;89.30
7562;DHT22;3822;48.784;9.174;2023-03-26T00:31:39;11.00;89.30
7562;DHT22;3822;48.784;9.174;2023-03-26T00:34:06;11.00;89.40
7562;DHT22;3822;48.784;9.174;2023-03-26T00:36:39;11.00;89.40
7562;DHT22;3822;48.784;9.174;2023-03-26T00:39:09;10.90;89.30
7562;DHT22;3822;48.784;9.174;2023-03-26T00:41:38;10.90;89.40
7562;DHT22;3822;48.784;9.174;2023-03-26T00:44:08;10.90;89.60
7562;DHT22;3822;48.784;9.174;2023-03-26T00:46:37;10.90;89.70
7562;DHT22;3822;48.784;9.174;2023-03-26T00:49:04;10.80;89.60
7562;DHT22;3822;48.784;9.174;2023-03-26T00:51:30;10.80;90.00
7562;DHT22;3822;48.784;9.174;2023-03-26T00:54:01;10.70;90.00
7562;DHT22;3822;48.784;9.174;2023-03-26T00:56:28;10.70;90.00
7562;DHT22;3822;48.784;9.174;2023-03-26T00:58:54;10.70;90.00
7562;DHT22;3822;48.784;9.174;2023-03-26T01:01:28;10.70;90.00
7562;DHT22;3822;48.784;9.174;2023-03-26T01:03:55;10.70;90.00
7562;DHT22;3822;48.784;9.174;2023-03-26T01:06:30;10.70;90.00
7562;DHT22;3822;48.784;9.174;2023-03-26T01:09:01;10.70;90.00
7562;DHT22;3822;48.784;9.174;2023-03-26T01:11:43;10.70;90.00
7562;DHT22;3822;48.784;9.174;2023-03-26T01:14:15;10.60;90.00
7562;DHT22;3822;48.784;9.174;2023-03-26T01:16:56;10.60;90.00
7562;DHT22;3822;48.784;9.174;2023-03-26T01:22:23;10.50;90.10
7562;DHT22;3822;48.784;9.174;2023-03-26T01:25:04;10.50;90.20
7562;DHT22;3822;48.784;9.174;2023-03-26T01:27:42;10.50;90.20
7562;DHT22;3822;48.784;9.174;2023-03-26T01:38:29;10.50;90.30
7562;DHT22;3822;48.784;9.174;2023-03-26T01:41:07;10.40;90.30
7562;DHT22;3822;48.784;9.174;2023-03-26T01:46:32;10.40;90.50
7562;DHT22;3822;48.784;9.174;2023-03-26T01:49:03;10.40;90.50
7562;DHT22;3822;48.784;9.174;2023-03-26T01:51:32;10.40;90.50
7562;DHT22;3822;48.784;9.174;2023-03-26T01:54:04;10.40;90.50
7562;DHT22;3822;48.784;9.174;2023-03-26T02:10:44;10.30;90.70
7562;DHT22;3822;48.784;9.174;2023-03-26T02:13:16;10.40;90.80
7562;DHT22;3822;48.784;9.174;2023-03-26T02:15:59;10.40;90.80
7562;DHT22;3822;48.784;9.174;2023-03-26T02:18:29;10.40;90.80
7562;DHT22;3822;48.784;9.174;2023-03-26T02:21:05;10.40;90.70
7562;DHT22;3822;48.784;9.174;2023-03-26T02:23:50;10.40;90.70
7562;DHT22;3822;48.784;9.174;2023-03-26T02:26:28;10.50;90.70
7562;DHT22;3822;48.784;9.174;2023-03-26T02:28:56;10.50;90.80
7562;DHT22;3822;48.784;9.174;2023-03-26T02:31:27;10.50;90.70
7562;DHT22;3822;48.784;9.174;2023-03-26T02:33:55;10.50;90.70
7562;DHT22;3822;48.784;9.174;2023-03-26T02:36:22;10.50;90.70
7562;DHT22;3822;48.784;9.174;2023-03-26T02:38:57;10.50;90.70
7562;DHT22;3822;48.784;9.174;2023-03-26T02:41:26;10.50;90.70
7562;DHT22;3822;48.784;9.174;2023-03-26T02:43:52;10.50;90.70
7562;DHT22;3822;48.784;9.174;2023-03-26T02:46:20;10.50;90.70
7562;DHT22;3822;48.784;9.174;2023-03-26T02:48:53;10.40;90.60
7562;DHT22;3822;48.784;9.174;2023-03-26T02:51:21;10.40;90.60
7562;DHT22;3822;48.784;9.174;2023-03-26T02:53:52;10.40;90.60
7562;DHT22;3822;48.784;9.174;2023-03-26T02:56:19;10.40;90.60
7562;DHT22;3822;48.784;9.174;2023-03-26T02:58:46;10.40;90.60
7562;DHT22;3822;48.784;9.174;2023-03-26T03:01:19;10.40;90.60
7562;DHT22;3822;48.784;9.174;2023-03-26T03:03:53;10.40;90.70
7562;DHT22;3822;48.784;9.174;2023-03-26T03:06:19;10.40;90.70
7562;DHT22;3822;48.784;9.174;2023-03-26T03:08:46;10.40;90.70
7562;DHT22;3822;48.784;9.174;2023-03-26T03:11:16;10.30;90.70
7562;DHT22;3822;48.784;9.174;2023-03-26T03:13:46;10.40;90.80
7562;DHT22;3822;48.784;9.174;2023-03-26T03:16:15;10.30;90.70
7562;DHT22;3822;48.784;9.174;2023-03-26T03:18:41;10.30;90.70
7562;DHT22;3822;48.784;9.174;2023-03-26T03:21:07;10.40;90.80
7562;DHT22;3822;48.784;9.174;2023-03-26T03:23:34;10.40;90.80
7562;DHT22;3822;48.784;9.174;2023-03-26T03:26:02;10.40;90.80
7562;DHT22;3822;48.784;9.174;2023-03-26T03:28:28;10.40;90.70
7562;DHT22;3822;48.784;9.174;2023-03-26T03:30:55;10.40;90.70
7562;DHT22;3822;48.784;9.174;2023-03-26T03:33:22;10.40;90.70
7562;DHT22;3822;48.784;9.174;2023-03-26T03:35:54;10.40;90.70
7562;DHT22;3822;48.784;9.174;2023-03-26T03:38:20;10.40;91.00
7562;DHT22;3822;48.784;9.174;2023-03-26T03:40:49;10.50;90.80
7562;DHT22;3822;48.784;9.174;2023-03-26T03:43:16;11.80;91.30
7562;DHT22;3822;48.784;9.174;2023-03-26T03:45:42;10.50;90.70
7562;DHT22;3822;48.784;9.174;2023-03-26T03:48:14;10.50;90.70
7562;DHT22;3822;48.784;9.174;2023-03-26T03:50:40;10.50;90.60
7562;DHT22;3822;48.784;9.174;2023-03-26T03:53:06;10.50;90.60
7562;DHT22;3822;48.784;9.174;2023-03-26T03:55:33;10.50;90.60
7562;DHT22;3822;48.784;9.174;2023-03-26T03:58:03;10.50;90.60
7562;DHT22;3822;48.784;9.174;2023-03-26T04:00:30;10.50;90.70
7562;DHT22;3822;48.784;9.174;2023-03-26T04:02:59;10.50;90.70
7562;DHT22;3822;48.784;9.174;2023-03-26T04:05:31;10.50;90.70
7562;DHT22;3822;48.784;9.174;2023-03-26T04:07:57;10.50;90.70
7562;DHT22;3822;48.784;9.174;2023-03-26T04:10:26;10.50;90.70
7562;DHT22;3822;48.784;9.174;2023-03-26T04:12:54;10.50;90.80
7562;DHT22;3822;48.784;9.174;2023-03-26T04:15:20;10.50;90.80
7562;DHT22;3822;48.784;9.174;2023-03-26T04:17:49;10.50;90.80
7562;DHT22;3822;48.784;9.174;2023-03-26T04:20:18;10.60;90.80
7562;DHT22;3822;48.784;9.174;2023-03-26T04:22:44;10.50;90.70
7562;DHT22;3822;48.784;9.174;2023-03-26T04:25:11;10.50;90.80
7562;DHT22;3822;48.784;9.174;2023-03-26T04:27:38;10.50;90.70
7562;DHT22;3822;48.784;9.174;2023-03-26T04:30:10;10.60;90.80
7562;DHT22;3822;48.784;9.174;2023-03-26T04:32:43;10.60;90.80
7562;DHT22;3822;48.784;9.174;2023-03-26T04:35:13;10.60;90.80
7562;DHT22;3822;48.784;9.174;2023-03-26T04:37:42;10.60;90.70
7562;DHT22;3822;48.784;9.174;2023-03-26T04:40:14;10.60;90.70
7562;DHT22;3822;48.784;9.174;2023-03-26T04:42:45;10.60;90.70
7562;DHT22;3822;48.784;9.174;2023-03-26T04:45:15;10.60;90.60
7562;DHT22;3822;48.784;9.174;2023-03-26T04:47:47;10.70;90.60
7562;DHT22;3822;48.784;9.174;2023-03-26T04:50:19;10.70;90.60
7562;DHT22;3822;48.784;9.174;2023-03-26T04:52:45;10.70;90.60
7562;DHT22;3822;48.784;9.174;2023-03-26T04:55:15;10.70;90.50
7562;DHT22;3822;48.784;9.174;2023-03-26T04:57:46;10.80;90.50
7562;DHT22;3822;48.784;9.174;2023-03-26T05:00:22;10.80;90.40
7562;DHT22;3822;48.784;9.174;2023-03-26T05:02:54;10.80;90.30
7562;DHT22;3822;48.784;9.174;2023-03-26T05:05:23;10.80;90.20
7562;DHT22;3822;48.784;9.174;2023-03-26T05:07:49;10.80;90.20
7562;DHT22;3822;48.784;9.174;2023-03-26T05:10:15;10.80;90.10
7562;DHT22;3822;48.784;9.174;2023-03-26T05:12:42;10.80;90.00
7562;DHT22;3822;48.784;9.174;2023-03-26T05:15:11;10.80;90.00
7562;DHT22;3822;48.784;9.174;2023-03-26T05:17:38;10.80;89.80
7562;DHT22;3822;48.784;9.174;2023-03-26T05:20:13;10.80;89.60
7562;DHT22;3822;48.784;9.174;2023-03-26T05:22:42;10.80;89.50
7562;DHT22;3822;48.784;9.174;2023-03-26T05:25:11;10.80;89.40
7562;DHT22;3822;48.784;9.174;2023-03-26T05:27:37;10.80;89.30
7562;DHT22;3822;48.784;9.174;2023-03-26T05:30:05;10.80;89.20
7562;DHT22;3822;48.784;9.174;2023-03-26T05:32:37;10.90;89.30
7562;DHT22;3822;48.784;9.174;2023-03-26T05:35:03;10.90;89.20
7562;DHT22;3822;48.784;9.174;2023-03-26T05:37:30;10.50;88.70
7562;DHT22;3822;48.784;9.174;2023-03-26T05:40:05;10.90;89.00
7562;DHT22;3822;48.784;9.174;2023-03-26T05:42:37;11.00;89.60
7562;DHT22;3822;48.784;9.174;2023-03-26T05:45:04;11.00;88.70
7562;DHT22;3822;48.784;9.174;2023-03-26T05:47:35;11.00;88.60
7562;DHT22;3822;48.784;9.174;2023-03-26T05:50:02;11.00;88.50
7562;DHT22;3822;48.784;9.174;2023-03-26T05:52:34;11.00;88.50
7562;DHT22;3822;48.784;9.174;2023-03-26T05:55:01;11.00;88.40
7562;DHT22;3822;48.784;9.174;2023-03-26T05:57:30;11.00;88.20
7562;DHT22;3822;48.784;9.174;2023-03-26T05:59:58;11.00;88.20
7562;DHT22;3822;48.784;9.174;2023-03-26T06:02:25;11.00;87.80
7562;DHT22;3822;48.784;9.174;2023-03-26T06:04:53;11.00;87.70
7562;DHT22;3822;48.784;9.174;2023-03-26T06:07:22;11.00;87.50
7562;DHT22;3822;48.784;9.174;2023-03-26T06:09:51;11.10;87.50
7562;DHT22;3822;48.784;9.174;2023-03-26T06:12:18;11.10;87.40
7562;DHT22;3822;48.784;9.174;2023-03-26T06:14:44;11.10;87.30
7562;DHT22;3822;48.784;9.174;2023-03-26T06:17:14;11.10;87.20
7562;DHT22;3822;48.784;9.174;2023-03-26T06:19:45;11.20;87.30
7562;DHT22;3822;48.784;9.174;2023-03-26T06:22:18;11.20;87.20
7562;DHT22;3822;48.784;9.174;2023-03-26T06:24:45;11.20;87.00
7562;DHT22;3822;48.784;9.174;2023-03-26T06:27:14;11.30;86.90
7562;DHT22;3822;48.784;9.174;2023-03-26T06:29:40;11.30;86.80
7562;DHT22;3822;48.784;9.174;2023-03-26T06:32:07;11.30;86.60
7562;DHT22;3822;48.784;9.174;2023-03-26T06:34:33;11.30;86.40
7562;DHT22;3822;48.784;9.174;2023-03-26T06:37:02;11.40;87.10
7562;DHT22;3822;48.784;9.174;2023-03-26T06:39:29;11.40;86.40
7562;DHT22;3822;48.784;9.174;2023-03-26T06:41:55;11.40;86.30
7562;DHT22;3822;48.784;9.174;2023-03-26T06:44:21;11.40;86.20
7562;DHT22;3822;48.784;9.174;2023-03-26T06:46:55;11.40;86.00
7562;DHT22;3822;48.784;9.174;2023-03-26T06:49:22;11.40;85.90
7562;DHT22;3822;48.784;9.174;2023-03-26T06:51:51;11.40;85.80
7562;DHT22;3822;48.784;9.174;2023-03-26T06:54:18;11.40;85.60
7562;DHT22;3822;48.784;9.174;2023-03-26T06:56:44;11.40;85.60
7562;DHT22;3822;48.784;9.174;2023-03-26T06:59:10;11.20;85.60
7562;DHT22;3822;48.784;9.174;2023-03-26T07:01:39;11.30;85.70
7562;DHT22;3822;48.784;9.174;2023-03-26T07:04:06;11.30;85.70
7562;DHT22;3822;48.784;9.174;2023-03-26T07:06:34;11.30;85.00
7562;DHT22;3822;48.784;9.174;2023-03-26T07:09:04;11.20;84.40
7562;DHT22;3822;48.784;9.174;2023-03-26T07:11:30;11.20;84.40
7562;DHT22;3822;48.784;9.174;2023-03-26T07:13:57;11.20;84.40
7562;DHT22;3822;48.784;9.174;2023-03-26T07:16:26;11.30;84.50
7562;DHT22;3822;48.784;9.174;2023-03-26T07:18:52;11.30;84.50
7562;DHT22;3822;48.784;9.174;2023-03-26T07:21:20;11.30;84.40
7562;DHT22;3822;48.784;9.174;2023-03-26T07:23:50;11.30;84.40
7562;DHT22;3822;48.784;9.174;2023-03-26T07:29:34;11.40;84.40
7562;DHT22;3822;48.784;9.174;2023-03-26T07:35:29;11.40;84.40
7562;DHT22;3822;48.784;9.174;2023-03-26T07:46:38;11.40;85.00
7562;DHT22;3822;48.784;9.174;2023-03-26T07:49:08;11.40;85.20
7562;DHT22;3822;48.784;9.174;2023-03-26T07:51:42;11.40;85.30
7562;DHT22;3822;48.784;9.174;2023-03-26T07:54:09;11.40;85.60
7562;DHT22;3822;48.784;9.174;2023-03-26T07:59:44;11.50;86.00
7562;DHT22;3822;48.784;9.174;2023-03-26T08:05:30;11.40;86.70
7562;DHT22;3822;48.784;9.174;2023-03-26T08:19:27;11.50;89.40
7562;DHT22;3822;48.784;9.174;2023-03-26T08:22:20;11.50;89.80
7562;DHT22;3822;48.784;9.174;2023-03-26T08:30:39;11.40;90.50
7562;DHT22;3822;48.784;9.174;2023-03-26T08:35:50;11.40;90.40
7562;DHT22;3822;48.784;9.174;2023-03-26T08:38:17;11.40;90.40
7562;DHT22;3822;48.784;9.174;2023-03-26T08:49:14;11.40;90.70
7562;DHT22;3822;48.784;9.174;2023-03-26T09:18:11;11.50;91.50
7562;DHT22;3822;48.784;9.174;2023-03-26T10:07:50;12.40;91.40
7562;DHT22;3822;48.784;9.174;2023-03-26T10:10:41;12.50;91.30
7562;DHT22;3822;48.784;9.174;2023-03-26T10:13:29;12.60;91.30
7562;DHT22;3822;48.784;9.174;2023-03-26T10:16:06;12.70;91.10
7562;DHT22;3822;48.784;9.174;2023-03-26T10:41:43;13.20;88.40
7562;DHT22;3822;48.784;9.174;2023-03-26T10:48:19;13.30;85.10
7562;DHT22;3822;48.784;9.174;2023-03-26T10:50:28;13.30;82.10
7562;DHT22;3822;48.784;9.174;2023-03-26T10:53:21;13.40;80.00
7562;DHT22;3822;48.784;9.174;2023-03-26T10:56:06;13.40;79.60
7562;DHT22;3822;48.784;9.174;2023-03-26T10:58:47;13.50;77.90
7562;DHT22;3822;48.784;9.174;2023-03-26T11:01:28;13.50;75.90
7562;DHT22;3822;48.784;9.174;2023-03-26T11:04:30;13.60;75.80
7562;DHT22;3822;48.784;9.174;2023-03-26T11:15:35;13.90;71.80
7562;DHT22;3822;48.784;9.174;2023-03-26T11:21:10;14.00;71.50
7562;DHT22;3822;48.784;9.174;2023-03-26T11:27:03;14.30;70.70
7562;DHT22;3822;48.784;9.174;2023-03-26T11:32:11;14.40;69.70
7562;DHT22;3822;48.784;9.174;2023-03-26T11:34:40;14.50;69.80
7562;DHT22;3822;48.784;9.174;2023-03-26T11:37:30;14.60;70.10
7562;DHT22;3822;48.784;9.174;2023-03-26T11:40:40;14.70;70.70
7562;DHT22;3822;48.784;9.174;2023-03-26T11:43:03;14.80;70.70
7562;DHT22;3822;48.784;9.174;2023-03-26T11:45:36;14.90;70.90
7562;DHT22;3822;48.784;9.174;2023-03-26T11:50:46;15.00;69.70
7562;DHT22;3822;48.784;9.174;2023-03-26T11:53:15;15.00;68.70
7562;DHT22;3822;48.784;9.174;2023-03-26T11:58:50;15.20;66.90
7562;DHT22;3822;48.784;9.174;2023-03-26T12:01:58;15.20;66.00
7562;DHT22;3822;48.784;9.174;2023-03-26T12:04:36;15.30;64.70
7562;DHT22;3822;48.784;9.174;2023-03-26T12:10:01;15.40;62.20
7562;DHT22;3822;48.784;9.174;2023-03-26T12:12:39;15.40;61.50
7562;DHT22;3822;48.784;9.174;2023-03-26T12:15:16;15.70;61.50
7562;DHT22;3822;48.784;9.174;2023-03-26T12:17:47;15.70;61.40
7562;DHT22;3822;48.784;9.174;2023-03-26T12:22:56;15.70;67.90
7562;DHT22;3822;48.784;9.174;2023-03-26T12:25:33;15.60;68.60
7562;DHT22;3822;48.784;9.174;2023-03-26T12:30:58;15.60;68.60
7562;DHT22;3822;48.784;9.174;2023-03-26T12:33:35;15.70;68.10
7562;DHT22;3822;48.784;9.174;2023-03-26T12:36:19;15.70;68.40
7562;DHT22;3822;48.784;9.174;2023-03-26T12:38:49;15.80;68.50
7562;DHT22;3822;48.784;9.174;2023-03-26T12:41:19;15.70;69.10
7562;DHT22;3822;48.784;9.174;2023-03-26T12:43:52;15.70;68.30
7562;DHT22;3822;48.784;9.174;2023-03-26T12:49:01;15.60;69.50
7562;DHT22;3822;48.784;9.174;2023-03-26T13:02:40;15.50;72.30
7562;DHT22;3822;48.784;9.174;2023-03-26T13:05:42;15.40;72.50
7562;DHT22;3822;48.784;9.174;2023-03-26T13:14:18;15.60;71.90
7562;DHT22;3822;48.784;9.174;2023-03-26T13:17:19;15.70;71.70
7562;DHT22;3822;48.784;9.174;2023-03-26T13:25:43;15.60;69.10
7562;DHT22;3822;48.784;9.174;2023-03-26T13:43:05;16.40;66.60
7562;DHT22;3822;48.784;9.174;2023-03-26T13:45:41;16.40;64.80
7562;DHT22;3822;48.784;9.174;2023-03-26T13:51:11;16.40;61.40
7562;DHT22;3822;48.784;9.174;2023-03-26T13:53:59;16.40;61.50
7562;DHT22;3822;48.784;9.174;2023-03-26T13:56:39;16.40;62.40
7562;DHT22;3822;48.784;9.174;2023-03-26T14:02:00;16.40;64.30
7562;DHT22;3822;48.784;9.174;2023-03-26T14:04:37;16.40;64.70
7562;DHT22;3822;48.784;9.174;2023-03-26T14:07:24;16.40;65.00
7562;DHT22;3822;48.784;9.174;2023-03-26T14:18:34;16.30;66.10
7562;DHT22;3822;48.784;9.174;2023-03-26T14:30:03;16.20;65.30
7562;DHT22;3822;48.784;9.174;2023-03-26T14:47:24;13.60;74.70
7562;DHT22;3822;48.784;9.174;2023-03-26T14:55:11;12.80;78.80
7562;DHT22;3822;48.784;9.174;2023-03-26T15:00:55;12.70;78.80
7562;DHT22;3822;48.784;9.174;2023-03-26T15:04:04;12.70;79.50
7562;DHT22;3822;48.784;9.174;2023-03-26T15:43:10;11.60;84.50
7562;DHT22;3822;48.784;9.174;2023-03-26T15:50:42;11.20;85.20
7562;DHT22;3822;48.784;9.174;2023-03-26T15:53:34;11.20;84.70
7562;DHT22;3822;48.784;9.174;2023-03-26T16:01:56;11.00;85.30
7562;DHT22;3822;48.784;9.174;2023-03-26T16:07:36;10.90;85.50
7562;DHT22;3822;48.784;9.174;2023-03-26T16:10:35;10.90;85.60
7562;DHT22;3822;48.784;9.174;2023-03-26T16:13:34;10.90;85.50
7562;DHT22;3822;48.784;9.174;2023-03-26T16:18:34;10.80;85.20
7562;DHT22;3822;48.784;9.174;2023-03-26T16:26:25;10.80;85.40
7562;DHT22;3822;48.784;9.174;2023-03-26T16:37:36;10.70;85.70
7562;DHT22;3822;48.784;9.174;2023-03-26T16:45:37;10.70;85.10
7562;DHT22;3822;48.784;9.174;2023-03-26T16:48:17;10.60;84.90
7562;DHT22;3822;48.784;9.174;2023-03-26T17:07:52;10.30;85.50
7562;DHT22;3822;48.784;9.174;2023-03-26T17:19:22;10.30;85.60
7562;DHT22;3822;48.784;9.174;2023-03-26T17:37:04;10.20;86.10
7562;DHT22;3822;48.784;9.174;2023-03-26T17:44:56;10.20;86.20
7562;DHT22;3822;48.784;9.174;2023-03-26T17:53:02;10.10;86.10
7562;DHT22;3822;48.784;9.174;2023-03-26T17:55:41;10.10;86.10
7562;DHT22;3822;48.784;9.174;2023-03-26T17:58:21;10.20;86.30
7562;DHT22;3822;48.784;9.174;2023-03-26T18:03:45;10.20;86.30
7562;DHT22;3822;48.784;9.174;2023-03-26T18:06:27;10.20;86.30
7562;DHT22;3822;48.784;9.174;2023-03-26T18:17:19;10.20;86.20
7562;DHT22;3822;48.784;9.174;2023-03-26T18:19:54;10.20;86.20
7562;DHT22;3822;48.784;9.174;2023-03-26T18:22:44;10.20;86.20
7562;DHT22;3822;48.784;9.174;2023-03-26T18:25:18;10.10;86.10
7562;DHT22;3822;48.784;9.174;2023-03-26T18:27:48;10.20;86.50
7562;DHT22;3822;48.784;9.174;2023-03-26T18:30:18;10.10;86.40
7562;DHT22;3822;48.784;9.174;2023-03-26T18:33:01;10.10;86.40
7562;DHT22;3822;48.784;9.174;2023-03-26T18:35:49;10.10;86.50
7562;DHT22;3822;48.784;9.174;2023-03-26T18:38:17;10.10;86.60
7562;DHT22;3822;48.784;9.174;2023-03-26T18:40:49;10.00;86.60
7562;DHT22;3822;48.784;9.174;2023-03-26T18:43:17;10.00;86.60
7562;DHT22;3822;48.784;9.174;2023-03-26T18:45:49;10.00;86.80
7562;DHT22;3822;48.784;9.174;2023-03-26T18:51:03;10.00;87.50
7562;DHT22;3822;48.784;9.174;2023-03-26T18:53:39;10.00;87.10
7562;DHT22;3822;48.784;9.174;2023-03-26T18:58:49;10.00;86.80
7562;DHT22;3822;48.784;9.174;2023-03-26T19:01:20;10.00;87.00
7562;DHT22;3822;48.784;9.174;2023-03-26T19:03:47;9.90;87.90
7562;DHT22;3822;48.784;9.174;2023-03-26T19:06:14;9.90;87.90
7562;DHT22;3822;48.784;9.174;2023-03-26T19:08:44;9.80;87.80
7562;DHT22;3822;48.784;9.174;2023-03-26T19:11:12;9.80;88.10
7562;DHT22;3822;48.784;9.174;2023-03-26T19:13:47;9.80;88.10
7562;DHT22;3822;48.784;9.174;2023-03-26T19:16:21;9.80;88.10
7562;DHT22;3822;48.784;9.174;2023-03-26T19:18:50;9.70;88.20
7562;DHT22;3822;48.784;9.174;2023-03-26T19:21:22;9.70;88.30
7562;DHT22;3822;48.784;9.174;2023-03-26T19:23:56;9.70;88.50
7562;DHT22;3822;48.784;9.174;2023-03-26T19:26:22;9.60;88.70
7562;DHT22;3822;48.784;9.174;2023-03-26T19:28:56;9.60;88.80
7562;DHT22;3822;48.784;9.174;2023-03-26T19:31:31;9.60;88.80
7562;DHT22;3822;48.784;9.174;2023-03-26T19:34:01;9.60;89.00
7562;DHT22;3822;48.784;9.174;2023-03-26T19:36:33;9.50;89.00
7562;DHT22;3822;48.784;9.174;2023-03-26T19:39:07;9.50;89.10
7562;DHT22;3822;48.784;9.174;2023-03-26T19:41:43;9.50;89.00
7562;DHT22;3822;48.784;9.174;2023-03-26T19:44:26;9.50;89.10
7562;DHT22;3822;48.784;9.174;2023-03-26T19:47:04;9.50;89.20
7562;DHT22;3822;48.784;9.174;2023-03-26T19:52:24;9.40;89.20
7562;DHT22;3822;48.784;9.174;2023-03-26T19:57:33;9.30;89.20
7562;DHT22;3822;48.784;9.174;2023-03-26T20:00:07;9.30;89.10
7562;DHT22;3822;48.784;9.174;2023-03-26T20:02:39;9.30;88.90
7562;DHT22;3822;48.784;9.174;2023-03-26T20:05:22;9.30;88.80
7562;DHT22;3822;48.784;9.174;2023-03-26T20:07:55;9.30;88.80
7562;DHT22;3822;48.784;9.174;2023-03-26T20:10:24;9.30;88.70
7562;DHT22;3822;48.784;9.174;2023-03-26T20:13:01;9.30;88.70
7562;DHT22;3822;48.784;9.174;2023-03-26T20:15:28;9.30;88.60
7562;DHT22;3822;48.784;9.174;2023-03-26T20:17:57;9.30;88.70
7562;DHT22;3822;48.784;9.174;2023-03-26T20:20:25;9.30;88.50
7562;DHT22;3822;48.784;9.174;2023-03-26T20:23:02;9.30;88.60
7562;DHT22;3822;48.784;9.174;2023-03-26T20:25:29;9.40;88.60
7562;DHT22;3822;48.784;9.174;2023-03-26T20:28:01;9.30;88.50
7562;DHT22;3822;48.784;9.174;2023-03-26T20:30:30;9.30;88.40
7562;DHT22;3822;48.784;9.174;2023-03-26T20:33:20;9.30;88.40
7562;DHT22;3822;48.784;9.174;2023-03-26T20:35:50;9.30;88.30
7562;DHT22;3822;48.784;9.174;2023-03-26T20:38:18;9.30;88.10
7562;DHT22;3822;48.784;9.174;2023-03-26T20:40:44;9.30;88.00
7562;DHT22;3822;48.784;9.174;2023-03-26T20:43:12;9.30;88.00
7562;DHT22;3822;48.784;9.174;2023-03-26T20:45:39;9.30;87.90
7562;DHT22;3822;48.784;9.174;2023-03-26T20:48:16;9.30;87.90
7562;DHT22;3822;48.784;9.174;2023-03-26T20:50:45;9.20;87.90
7562;DHT22;3822;48.784;9.174;2023-03-26T20:53:17;9.20;87.90
7562;DHT22;3822;48.784;9.174;2023-03-26T20:55:58;9.10;87.80
7562;DHT22;3822;48.784;9.174;2023-03-26T20:58:24;9.10;87.90
7562;DHT22;3822;48.784;9.174;2023-03-26T21:00:58;9.10;87.90
7562;DHT22;3822;48.784;9.174;2023-03-26T21:03:25;9.00;87.90
7562;DHT22;3822;48.784;9.174;2023-03-26T21:05:52;9.00;88.00
7562;DHT22;3822;48.784;9.174;2023-03-26T21:08:22;8.90;88.00
7562;DHT22;3822;48.784;9.174;2023-03-26T21:10:58;8.90;88.00
7562;DHT22;3822;48.784;9.174;2023-03-26T21:13:37;8.80;87.90
7562;DHT22;3822;48.784;9.174;2023-03-26T21:16:14;8.80;88.00
7562;DHT22;3822;48.784;9.174;2023-03-26T21:18:41;8.80;88.10
7562;DHT22;3822;48.784;9.174;2023-03-26T21:23:54;8.80;88.20
7562;DHT22;3822;48.784;9.174;2023-03-26T21:26:35;8.80;88.30
7562;DHT22;3822;48.784;9.174;2023-03-26T21:29:04;8.80;88.50
7562;DHT22;3822;48.784;9.174;2023-03-26T21:31:33;8.80;88.70
7562;DHT22;3822;48.784;9.174;2023-03-26T21:34:02;8.80;88.80
7562;DHT22;3822;48.784;9.174;2023-03-26T21:36:34;8.80;89.10
7562;DHT22;3822;48.784;9.174;2023-03-26T21:39:00;8.80;89.10
7562;DHT22;3822;48.784;9.174;2023-03-26T21:41:38;8.80;89.40
7562;DHT22;3822;48.784;9.174;2023-03-26T21:44:10;8.80;90.00
7562;DHT22;3822;48.784;9.174;2023-03-26T21:46:39;8.80;90.00
7562;DHT22;3822;48.784;9.174;2023-03-26T21:49:13;8.80;90.10
7562;DHT22;3822;48.784;9.174;2023-03-26T21:51:46;8.80;90.20
7562;DHT22;3822;48.784;9.174;2023-03-26T21:59:20;8.90;90.50
7562;DHT22;3822;48.784;9.174;2023-03-26T22:04:30;8.90;90.90
7562;DHT22;3822;48.784;9.174;2023-03-26T22:09:42;8.90;91.20
7562;DHT22;3822;48.784;9.174;2023-03-26T22:12:11;8.90;91.20
7562;DHT22;3822;48.784;9.174;2023-03-26T22:14:37;8.90;91.30
7562;DHT22;3822;48.784;9.174;2023-03-26T22:17:10;8.90;91.50
7562;DHT22;3822;48.784;9.174;2023-03-26T22:19:43;8.90;91.70
7562;DHT22;3822;48.784;9.174;2023-03-26T22:22:10;8.90;91.90
7562;DHT22;3822;48.784;9.174;2023-03-26T22:24:37;8.90;92.10
7562;DHT22;3822;48.784;9.174;2023-03-26T22:27:06;8.90;92.20
7562;DHT22;3822;48.784;9.174;2023-03-26T22:29:33;8.90;92.60
7562;DHT22;3822;48.784;9.174;2023-03-26T22:32:10;8.90;92.50
7562;DHT22;3822;48.784;9.174;2023-03-26T22:34:44;8.80;92.70
7562;DHT22;3822;48.784;9.174;2023-03-26T22:37:11;8.80;92.90
7562;DHT22;3822;48.784;9.174;2023-03-26T22:39:42;8.70;92.90
7562;DHT22;3822;48.784;9.174;2023-03-26T22:42:08;8.70;93.00
7562;DHT22;3822;48.784;9.174;2023-03-26T22:44:34;8.70;93.10
7562;DHT22;3822;48.784;9.174;2023-03-26T22:47:01;8.70;93.40
7562;DHT22;3822;48.784;9.174;2023-03-26T22:49:32;8.70;93.50
7562;DHT22;3822;48.784;9.174;2023-03-26T22:51:58;8.70;93.50
7562;DHT22;3822;48.784;9.174;2023-03-26T22:54:25;8.70;93.70
7562;DHT22;3822;48.784;9.174;2023-03-26T22:56:55;8.70;93.70
7562;DHT22;3822;48.784;9.174;2023-03-26T22:59:21;8.70;93.70
7562;DHT22;3822;48.784;9.174;2023-03-26T23:01:47;8.80;93.80
7562;DHT22;3822;48.784;9.174;2023-03-26T23:04:14;8.70;94.00
7562;DHT22;3822;48.784;9.174;2023-03-26T23:06:54;8.80;94.10
7562;DHT22;3822;48.784;9.174;2023-03-26T23:09:20;8.80;94.10
7562;DHT22;3822;48.784;9.174;2023-03-26T23:11:47;8.80;94.20
7562;DHT22;3822;48.784;9.174;2023-03-26T23:14:13;8.80;94.30
7562;DHT22;3822;48.784;9.174;2023-03-26T23:16:42;8.80;94.30
7562;DHT22;3822;48.784;9.174;2023-03-26T23:19:10;8.80;94.30
7562;DHT22;3822;48.784;9.174;2023-03-26T23:21:37;8.80;94.40
7562;DHT22;3822;48.784;9.174;2023-03-26T23:24:11;8.80;94.40
7562;DHT22;3822;48.784;9.174;2023-03-26T23:26:37;8.80;94.50
7562;DHT22;3822;48.784;9.174;2023-03-26T23:29:05;8.80;94.70
7562;DHT22;3822;48.784;9.174;2023-03-26T23:31:32;8.80;94.70
7562;DHT22;3822;48.784;9.174;2023-03-26T23:34:00;8.80;94.80
7562;DHT22;3822;48.784;9.174;2023-03-26T23:36:30;8.80;94.90
7562;DHT22;3822;48.784;9.174;2023-03-26T23:38:56;8.80;95.00
7562;DHT22;3822;48.784;9.174;2023-03-26T23:41:23;8.80;95.20
7562;DHT22;3822;48.784;9.174;2023-03-26T23:43:50;8.80;95.30
7562;DHT22;3822;48.784;9.174;2023-03-26T23:46:26;8.70;95.40
7562;DHT22;3822;48.784;9.174;2023-03-26T23:48:58;8.70;95.40
7562;DHT22;3822;48.784;9.174;2023-03-26T23:51:33;8.70;95.60
7562;DHT22;3822;48.784;9.174;2023-03-26T23:54:08;8.70;95.80
7562;DHT22;3822;48.784;9.174;2023-03-26T23:56:36;8.70;95.80
7562;DHT22;3822;48.784;9.174;2023-03-26T23:59:10;8.70;95.90
